Ft Myer, Virginia
Current Conditions -  °F | °C
As of 5:52 PM on Friday 28 Nov 2014 (Local Time) from KDCA Reporting Station
Scattered Clouds Scattered Clouds  
Wind Chill: 32°   Ceiling: Unl
Heat Index: 37°   Visibility: 10mi
Dew Point: 17°   Wind: 7mph
Humidity: 44%   Direction: 310°NW
Pressure: 30.3"   Gusts: NA
Location:  38.8787°N, 77.0774°W
Report Text: KDCA 282252Z 31006KT 10SM FEW049 SCT250 03/M08 A3030 RMK AO2 SLP259 T00281083
Loading
Personal Weather Stations






























Interactive Weather Map New forecast layout! Learn more

10-Day Weather Forecast

Advertisements
Track Severe Weather on mobile